createdAt,value
2022-12-14T00:01:28.279Z,-1.60
2022-12-14T00:03:56.448Z,-1.60
2022-12-14T00:06:26.201Z,-1.60
2022-12-14T00:08:55.680Z,-1.60
2022-12-14T00:11:22.970Z,-1.50
2022-12-14T00:13:57.586Z,-1.40
2022-12-14T00:16:27.538Z,-1.20
2022-12-14T00:18:56.262Z,-1.30
2022-12-14T00:21:23.805Z,-1.30
2022-12-14T00:23:52.442Z,-1.30
2022-12-14T00:26:25.340Z,-1.00
2022-12-14T00:28:54.433Z,-1.10
2022-12-14T00:31:22.876Z,-1.20
2022-12-14T00:33:50.776Z,-1.10
2022-12-14T00:36:17.816Z,-1.40
2022-12-14T00:38:45.082Z,-1.50
2022-12-14T00:41:12.552Z,-1.50
2022-12-14T00:43:39.777Z,-1.50
2022-12-14T00:46:07.302Z,-1.50
2022-12-14T00:48:34.472Z,-1.40
2022-12-14T00:51:01.554Z,-1.50
2022-12-14T00:53:28.525Z,-1.60
2022-12-14T00:55:55.618Z,-1.70
2022-12-14T00:58:24.889Z,-1.80
2022-12-14T01:01:06.792Z,-1.90
2022-12-14T01:03:34.440Z,-1.90
2022-12-14T01:06:01.622Z,-2.00
2022-12-14T01:08:35.329Z,-2.00
2022-12-14T01:11:08.331Z,-2.00
2022-12-14T01:13:37.182Z,-1.90
2022-12-14T01:16:09.269Z,-1.80
2022-12-14T01:18:38.629Z,-1.70
2022-12-14T01:21:15.753Z,-1.70
2022-12-14T01:23:44.178Z,-1.50
2022-12-14T01:26:15.586Z,-1.20
2022-12-14T01:28:42.776Z,-1.20
2022-12-14T01:31:15.062Z,-1.30
2022-12-14T01:33:42.528Z,-1.20
2022-12-14T01:36:11.950Z,-1.10
2022-12-14T01:38:39.288Z,-1.30
2022-12-14T01:41:07.521Z,-1.50
2022-12-14T01:43:49.675Z,-1.60
2022-12-14T01:46:40.359Z,-1.70
2022-12-14T01:49:16.685Z,-1.70
2022-12-14T01:51:48.003Z,-1.40
2022-12-14T01:54:16.079Z,-1.00
2022-12-14T01:56:45.670Z,-1.00
2022-12-14T01:59:21.117Z,-1.00
2022-12-14T02:01:48.848Z,-0.90
2022-12-14T02:04:18.618Z,-1.10
2022-12-14T02:06:49.254Z,-1.20
2022-12-14T02:09:23.593Z,-1.30
2022-12-14T02:12:04.334Z,-1.30
2022-12-14T02:14:31.485Z,-0.80
2022-12-14T02:16:58.458Z,-0.60
2022-12-14T02:19:25.444Z,-0.40
2022-12-14T02:22:35.809Z,-0.20
2022-12-14T02:25:39.164Z,-0.20
2022-12-14T02:28:27.432Z,-0.50
2022-12-14T02:31:33.212Z,-0.60
2022-12-14T02:34:18.304Z,-0.60
2022-12-14T02:37:11.198Z,-0.90
2022-12-14T02:40:10.479Z,-1.20
2022-12-14T02:43:01.189Z,-1.40
2022-12-14T02:45:59.892Z,-1.00
2022-12-14T02:48:32.439Z,-0.60
2022-12-14T02:51:27.368Z,-0.50
2022-12-14T02:54:03.576Z,-0.60
2022-12-14T02:56:37.444Z,-0.70
2022-12-14T02:59:07.859Z,-0.70
2022-12-14T03:01:36.761Z,-0.80
2022-12-14T03:04:04.030Z,-0.80
2022-12-14T03:06:31.039Z,-0.70
2022-12-14T03:09:18.313Z,-0.50
2022-12-14T03:12:07.281Z,-0.50
2022-12-14T03:14:36.596Z,-0.70
2022-12-14T03:17:19.239Z,-0.70
2022-12-14T03:20:08.068Z,-0.80
2022-12-14T03:22:47.500Z,-0.50
2022-12-14T03:25:18.968Z,-0.70
2022-12-14T03:27:58.509Z,-1.10
2022-12-14T03:30:51.286Z,-1.10
2022-12-14T03:33:17.932Z,-1.10
2022-12-14T03:36:16.215Z,-1.10
2022-12-14T03:38:47.819Z,-1.10
2022-12-14T03:41:31.240Z,-1.30
2022-12-14T03:44:07.362Z,-1.40
2022-12-14T03:46:44.856Z,-1.50
2022-12-14T03:49:47.090Z,-1.50
2022-12-14T03:52:31.855Z,-1.50
2022-12-14T03:55:12.987Z,-1.40
2022-12-14T03:58:10.423Z,-1.50
2022-12-14T04:00:45.908Z,-1.50
2022-12-14T04:03:20.372Z,-1.20
2022-12-14T04:06:09.337Z,-1.00
2022-12-14T04:08:51.965Z,-0.70
2022-12-14T04:11:39.641Z,-0.40
2022-12-14T04:14:35.189Z,-0.30
2022-12-14T04:17:26.254Z,-0.20
2022-12-14T04:20:05.186Z,-0.20
2022-12-14T04:22:37.786Z,-0.20
2022-12-14T04:25:31.420Z,-0.20
2022-12-14T04:28:01.896Z,-0.10
2022-12-14T04:30:32.051Z,0.10
2022-12-14T04:33:27.082Z,0.10
2022-12-14T04:35:58.246Z,0.00
2022-12-14T04:38:37.883Z,0.20
2022-12-14T04:41:11.593Z,0.40
2022-12-14T04:43:44.475Z,0.50
2022-12-14T04:46:24.481Z,0.40
2022-12-14T04:49:19.990Z,0.30
2022-12-14T04:51:53.530Z,0.30
2022-12-14T04:54:27.943Z,0.30
2022-12-14T04:57:08.843Z,0.20
2022-12-14T04:59:37.223Z,0.30
2022-12-14T05:02:06.834Z,0.30
2022-12-14T05:05:16.409Z,0.20
2022-12-14T05:07:53.938Z,0.20
2022-12-14T05:10:34.622Z,0.20
2022-12-14T05:13:10.763Z,-0.10
2022-12-14T05:15:48.193Z,-0.30
2022-12-14T05:18:15.551Z,-0.50
2022-12-14T05:20:42.504Z,-0.30
2022-12-14T05:23:09.852Z,-0.30
2022-12-14T05:25:36.616Z,-0.30
2022-12-14T05:28:04.023Z,-0.40
2022-12-14T05:30:30.900Z,-0.40
2022-12-14T05:32:57.777Z,-0.20
2022-12-14T05:35:24.819Z,-0.20
2022-12-14T05:37:51.916Z,0.00
2022-12-14T05:40:18.962Z,-0.10
2022-12-14T05:42:48.694Z,-0.10
2022-12-14T05:45:19.136Z,-0.10
2022-12-14T05:47:46.282Z,0.00
2022-12-14T05:50:13.234Z,-0.10
2022-12-14T05:52:40.281Z,-0.10
2022-12-14T05:55:07.723Z,0.00
2022-12-14T05:57:34.350Z,-0.10
2022-12-14T06:00:01.007Z,-0.10
2022-12-14T06:02:28.129Z,0.00
2022-12-14T06:04:55.117Z,0.00
2022-12-14T06:07:27.522Z,0.00
2022-12-14T06:09:54.986Z,-0.20
2022-12-14T06:12:22.548Z,-0.20
2022-12-14T06:14:49.681Z,-0.30
2022-12-14T06:17:16.495Z,-0.30
2022-12-14T06:19:50.066Z,-0.40
2022-12-14T06:22:18.409Z,-0.40
2022-12-14T06:24:45.652Z,-0.30
2022-12-14T06:27:12.461Z,-0.30
2022-12-14T06:29:39.128Z,-0.40
2022-12-14T06:32:06.612Z,-0.40
2022-12-14T06:34:38.457Z,-0.50
2022-12-14T06:37:06.824Z,-0.50
2022-12-14T06:39:33.872Z,-0.70
2022-12-14T06:42:00.909Z,-0.80
2022-12-14T06:44:28.031Z,-0.70
2022-12-14T06:46:55.691Z,-0.80
2022-12-14T06:49:22.865Z,-0.80
2022-12-14T06:51:50.295Z,-0.70
2022-12-14T06:54:18.371Z,-1.00
2022-12-14T06:56:47.069Z,-0.90
2022-12-14T06:59:15.177Z,-0.70
2022-12-14T07:01:42.424Z,-0.70
2022-12-14T07:04:10.176Z,-0.90
2022-12-14T07:06:41.208Z,-0.70
2022-12-14T07:09:13.830Z,-0.70
2022-12-14T07:11:42.090Z,-0.70
2022-12-14T07:14:15.896Z,-0.90
2022-12-14T07:16:48.244Z,-0.80
2022-12-14T07:19:16.781Z,-1.00
2022-12-14T07:21:44.615Z,-0.80
2022-12-14T07:24:12.532Z,-0.60
2022-12-14T07:26:39.583Z,-0.80
2022-12-14T07:29:09.161Z,-1.00
2022-12-14T07:31:36.273Z,-0.90
2022-12-14T07:34:04.368Z,-1.00
2022-12-14T07:36:32.866Z,-0.80
2022-12-14T07:39:00.290Z,-0.80
2022-12-14T07:41:31.015Z,-1.10
2022-12-14T07:43:59.940Z,-1.00
2022-12-14T07:46:30.385Z,-1.00
2022-12-14T07:48:58.437Z,-1.20
2022-12-14T07:51:32.296Z,-1.00
2022-12-14T07:54:00.861Z,-0.90
2022-12-14T07:56:32.804Z,-0.90
2022-12-14T07:59:05.040Z,-0.90
2022-12-14T08:01:36.943Z,-1.00
2022-12-14T08:04:13.467Z,-0.90
2022-12-14T08:06:43.038Z,-0.70
2022-12-14T08:09:11.843Z,-0.70
2022-12-14T08:11:39.978Z,-0.70
2022-12-14T08:14:11.249Z,-0.80
2022-12-14T08:16:38.278Z,-0.90
2022-12-14T08:19:05.510Z,-1.00
2022-12-14T08:21:38.316Z,-1.10
2022-12-14T08:24:05.296Z,-1.10
2022-12-14T08:26:36.024Z,-1.30
2022-12-14T08:29:05.239Z,-1.30
2022-12-14T08:31:32.640Z,-1.30
2022-12-14T08:34:01.932Z,-1.40
2022-12-14T08:36:30.914Z,-1.40
2022-12-14T08:38:59.555Z,-1.30
2022-12-14T08:41:27.754Z,-1.30
2022-12-14T08:43:57.148Z,-1.20
2022-12-14T08:46:25.925Z,-1.10
2022-12-14T08:48:58.943Z,-1.30
2022-12-14T08:51:28.535Z,-1.00
2022-12-14T08:53:56.368Z,-1.00
2022-12-14T08:56:26.748Z,-0.80
2022-12-14T08:58:53.987Z,-0.80
2022-12-14T09:01:28.359Z,-0.80
2022-12-14T09:04:07.635Z,-0.70
2022-12-14T09:06:38.254Z,-0.80
2022-12-14T09:09:15.738Z,-0.80
2022-12-14T09:11:44.876Z,-0.90
2022-12-14T09:14:11.723Z,-1.00
2022-12-14T09:16:39.162Z,-1.10
2022-12-14T09:19:06.156Z,-1.00
2022-12-14T09:21:34.961Z,-0.90
2022-12-14T09:24:01.867Z,-0.60
2022-12-14T09:26:29.678Z,-0.50
2022-12-14T09:28:58.114Z,-0.40
2022-12-14T09:31:26.762Z,-0.20
2022-12-14T09:33:56.644Z,-0.10
2022-12-14T09:36:28.007Z,0.10
2022-12-14T09:38:57.342Z,0.20
2022-12-14T09:41:36.374Z,0.10
2022-12-14T09:44:05.994Z,0.00
2022-12-14T09:46:41.723Z,-0.10
2022-12-14T09:49:25.971Z,0.10
2022-12-14T09:51:57.291Z,0.00
2022-12-14T09:54:29.374Z,0.00
2022-12-14T09:57:01.132Z,-0.10
2022-12-14T09:59:30.299Z,-0.40
2022-12-14T10:02:30.549Z,-0.40
2022-12-14T10:05:11.873Z,-0.20
2022-12-14T10:08:05.860Z,-0.20
2022-12-14T10:11:14.923Z,-0.50
2022-12-14T10:14:02.099Z,-0.50
2022-12-14T10:16:51.787Z,-0.30
2022-12-14T10:19:35.222Z,-0.30
2022-12-14T10:22:08.800Z,-0.30
2022-12-14T10:24:45.962Z,-0.40
2022-12-14T10:27:22.664Z,-0.50
2022-12-14T10:30:08.723Z,-0.50
2022-12-14T10:32:40.108Z,-0.50
2022-12-14T10:35:24.145Z,-0.40
2022-12-14T10:38:17.735Z,-0.30
2022-12-14T10:40:53.653Z,-0.30
2022-12-14T10:43:39.269Z,-0.40
2022-12-14T10:46:22.676Z,-0.50
2022-12-14T10:48:54.381Z,-0.60
2022-12-14T10:51:42.447Z,-0.50
2022-12-14T10:54:28.036Z,-0.30
2022-12-14T10:56:55.513Z,-0.30
2022-12-14T10:59:27.443Z,-0.10
2022-12-14T11:02:08.076Z,-0.10
2022-12-14T11:04:59.921Z,-0.10
2022-12-14T11:07:38.900Z,-0.10
2022-12-14T11:10:32.564Z,-0.10
2022-12-14T11:13:01.322Z,0.40
2022-12-14T11:15:39.287Z,1.40
2022-12-14T11:18:30.628Z,2.30
2022-12-14T11:21:05.151Z,3.90
2022-12-14T11:23:40.180Z,4.70
2022-12-14T11:26:20.933Z,5.40
2022-12-14T11:28:50.675Z,7.00
2022-12-14T11:31:43.038Z,7.70
2022-12-14T11:34:31.340Z,6.40
2022-12-14T11:37:11.588Z,5.80
2022-12-14T11:39:42.699Z,5.90
2022-12-14T11:42:21.691Z,5.90
2022-12-14T11:44:51.179Z,6.00
2022-12-14T11:47:29.140Z,5.90
2022-12-14T11:49:57.724Z,6.20
2022-12-14T11:52:40.797Z,6.20
2022-12-14T11:55:18.177Z,6.40
2022-12-14T11:58:01.256Z,6.80
2022-12-14T12:00:31.378Z,6.70
2022-12-14T12:03:06.290Z,6.20
2022-12-14T12:05:40.809Z,5.80
2022-12-14T12:08:29.102Z,5.10
2022-12-14T12:11:02.278Z,4.90
2022-12-14T12:13:31.355Z,5.30
2022-12-14T12:16:14.740Z,5.20
2022-12-14T12:18:46.875Z,5.40
2022-12-14T12:21:28.469Z,5.10
2022-12-14T12:24:21.409Z,5.30
2022-12-14T12:26:55.341Z,5.90
2022-12-14T12:29:46.562Z,5.20
2022-12-14T12:32:26.488Z,5.10
2022-12-14T12:34:56.943Z,5.70
2022-12-14T12:37:43.491Z,6.10
2022-12-14T12:40:30.406Z,5.90
2022-12-14T12:43:17.081Z,6.10
2022-12-14T12:45:59.715Z,6.10
2022-12-14T12:48:33.653Z,6.10
2022-12-14T12:51:05.054Z,5.60
2022-12-14T12:53:41.215Z,4.80
2022-12-14T12:56:17.072Z,4.80
2022-12-14T12:58:52.416Z,5.00
2022-12-14T13:01:41.209Z,5.80
2022-12-14T13:04:20.550Z,6.30
2022-12-14T13:07:06.316Z,6.80
2022-12-14T13:09:43.517Z,7.40
2022-12-14T13:12:38.398Z,7.20
2022-12-14T13:15:28.719Z,6.90
2022-12-14T13:19:04.446Z,6.20
2022-12-14T13:21:49.858Z,6.00
2022-12-14T13:24:20.514Z,5.60
2022-12-14T13:27:25.199Z,5.20
2022-12-14T13:30:01.104Z,5.00
2022-12-14T13:33:03.292Z,4.80
2022-12-14T13:35:51.527Z,4.80
2022-12-14T13:38:45.826Z,5.50
2022-12-14T13:41:31.709Z,5.70
2022-12-14T13:44:34.718Z,5.10
2022-12-14T13:47:11.666Z,4.70
2022-12-14T13:49:40.625Z,4.00
2022-12-14T13:52:30.027Z,4.20
2022-12-14T13:54:58.612Z,3.80
2022-12-14T13:57:27.062Z,3.70
2022-12-14T13:59:58.692Z,3.30
2022-12-14T14:02:31.990Z,2.90
2022-12-14T14:05:20.195Z,2.50
2022-12-14T14:07:56.152Z,2.20
2022-12-14T14:10:34.463Z,2.00
2022-12-14T14:13:27.590Z,1.70
2022-12-14T14:16:27.491Z,1.40
2022-12-14T14:18:57.741Z,1.20
2022-12-14T14:21:52.488Z,1.10
2022-12-14T14:24:27.613Z,1.00
2022-12-14T14:27:00.881Z,1.10
2022-12-14T14:29:30.012Z,1.10
2022-12-14T14:32:06.513Z,0.90
2022-12-14T14:35:01.119Z,0.90
2022-12-14T14:37:32.127Z,0.80
2022-12-14T14:40:18.659Z,0.60
2022-12-14T14:43:05.705Z,0.70
2022-12-14T14:45:50.164Z,0.70
2022-12-14T14:48:32.327Z,0.70
2022-12-14T14:51:26.649Z,0.70
2022-12-14T14:57:55.472Z,0.50
2022-12-14T15:00:23.043Z,0.50
2022-12-14T15:02:53.112Z,0.40
2022-12-14T15:05:43.156Z,0.50
2022-12-14T15:08:37.047Z,0.30
2022-12-14T15:11:14.419Z,0.40
2022-12-14T15:14:16.572Z,0.40
2022-12-14T15:16:45.681Z,0.30
2022-12-14T15:19:33.407Z,0.10
2022-12-14T15:22:08.013Z,0.10
2022-12-14T15:24:40.024Z,0.10
2022-12-14T15:27:29.990Z,0.10
2022-12-14T15:30:06.485Z,0.00
2022-12-14T15:32:33.653Z,0.00
2022-12-14T15:35:07.556Z,-0.10
2022-12-14T15:37:54.716Z,-0.30
2022-12-14T15:40:30.486Z,-0.30
2022-12-14T15:43:03.731Z,-0.40
2022-12-14T15:45:40.792Z,-0.60
2022-12-14T15:48:23.033Z,-0.60
2022-12-14T15:50:55.960Z,-0.70
2022-12-14T15:53:43.321Z,-0.70
2022-12-14T15:56:46.688Z,-0.70
2022-12-14T15:59:32.889Z,-0.80
2022-12-14T16:02:43.880Z,-0.60
2022-12-14T16:05:17.490Z,-0.60
2022-12-14T16:07:52.291Z,-0.50
2022-12-14T16:10:32.809Z,-0.50
2022-12-14T16:13:03.672Z,-0.30
2022-12-14T16:15:32.752Z,-0.20
2022-12-14T16:18:02.608Z,-0.20
2022-12-14T16:20:54.822Z,-0.30
2022-12-14T16:23:45.527Z,-0.40
2022-12-14T16:26:16.097Z,-0.40
2022-12-14T16:28:44.072Z,-0.30
2022-12-14T16:31:24.143Z,-0.20
2022-12-14T16:34:15.654Z,-0.30
2022-12-14T16:36:56.235Z,-0.50
2022-12-14T16:39:45.210Z,-0.50
2022-12-14T16:42:26.235Z,-0.50
2022-12-14T16:44:54.074Z,-0.70
2022-12-14T16:47:20.953Z,-0.70
2022-12-14T16:49:51.931Z,-0.60
2022-12-14T16:52:34.902Z,-0.40
2022-12-14T16:55:18.384Z,-0.50
2022-12-14T16:57:48.125Z,-0.70
2022-12-14T17:00:27.248Z,-1.00
2022-12-14T17:03:23.034Z,-1.10
2022-12-14T17:05:56.416Z,-1.00
2022-12-14T17:08:23.423Z,-0.80
2022-12-14T17:10:54.179Z,-0.70
2022-12-14T17:13:22.960Z,-0.70
2022-12-14T17:16:01.889Z,-0.80
2022-12-14T17:18:33.145Z,-0.90
2022-12-14T17:21:02.057Z,-0.90
2022-12-14T17:23:29.862Z,-0.90
2022-12-14T17:25:57.229Z,-0.90
2022-12-14T17:28:27.960Z,-1.10
2022-12-14T17:30:58.301Z,-1.10
2022-12-14T17:33:27.476Z,-1.00
2022-12-14T17:35:55.189Z,-0.80
2022-12-14T17:38:23.731Z,-0.80
2022-12-14T17:40:53.750Z,-0.90
2022-12-14T17:43:24.850Z,-1.20
2022-12-14T17:45:52.748Z,-1.10
2022-12-14T17:48:22.448Z,-1.10
2022-12-14T17:50:51.234Z,-1.30
2022-12-14T17:53:30.444Z,-1.40
2022-12-14T17:55:58.666Z,-1.40
2022-12-14T17:58:25.747Z,-1.30
2022-12-14T18:01:01.800Z,-1.20
2022-12-14T18:03:36.269Z,-1.00
2022-12-14T18:06:14.644Z,-1.10
2022-12-14T18:08:45.024Z,-1.20
2022-12-14T18:11:21.582Z,-1.40
2022-12-14T18:13:49.013Z,-1.40
2022-12-14T18:16:21.199Z,-1.50
2022-12-14T18:18:51.001Z,-1.50
2022-12-14T18:21:22.475Z,-1.70
2022-12-14T18:23:52.171Z,-1.90
2022-12-14T18:26:20.930Z,-1.70
2022-12-14T18:28:50.979Z,-1.60
2022-12-14T18:31:35.957Z,-1.70
2022-12-14T18:34:06.397Z,-1.60
2022-12-14T18:36:39.844Z,-1.50
2022-12-14T18:39:07.407Z,-1.60
2022-12-14T18:41:35.365Z,-1.50
2022-12-14T18:44:07.752Z,-1.40
2022-12-14T18:46:39.149Z,-1.40
2022-12-14T18:49:05.970Z,-1.30
2022-12-14T18:51:33.813Z,-1.30
2022-12-14T18:54:01.005Z,-1.40
2022-12-14T18:56:29.098Z,-1.20
2022-12-14T18:59:03.191Z,-1.20
2022-12-14T19:01:29.931Z,-1.30
2022-12-14T19:03:56.851Z,-1.20
2022-12-14T19:06:45.719Z,-1.20
2022-12-14T19:09:14.186Z,-1.10
2022-12-14T19:11:42.063Z,-1.10
2022-12-14T19:14:15.038Z,-1.00
2022-12-14T19:16:42.779Z,-1.20
2022-12-14T19:19:11.519Z,-1.30
2022-12-14T19:21:39.385Z,-1.40
2022-12-14T19:24:08.636Z,-1.30
2022-12-14T19:26:38.865Z,-1.30
2022-12-14T19:29:05.880Z,-1.30
2022-12-14T19:31:34.960Z,-1.40
2022-12-14T19:34:01.936Z,-1.40
2022-12-14T19:36:31.834Z,-1.30
2022-12-14T19:38:58.626Z,-1.30
2022-12-14T19:41:25.539Z,-1.40
2022-12-14T19:43:58.616Z,-1.50
2022-12-14T19:46:26.774Z,-1.50
2022-12-14T19:48:57.302Z,-1.50
2022-12-14T19:51:23.961Z,-1.40
2022-12-14T19:53:53.801Z,-1.30
2022-12-14T19:56:23.451Z,-1.30
2022-12-14T19:58:50.119Z,-1.40
2022-12-14T20:01:17.921Z,-1.30
2022-12-14T20:03:46.198Z,-1.40
2022-12-14T20:06:15.335Z,-1.60
2022-12-14T20:08:42.411Z,-1.70
2022-12-14T20:11:11.690Z,-1.50
2022-12-14T20:13:45.686Z,-1.50
2022-12-14T20:16:17.035Z,-1.90
2022-12-14T20:18:45.454Z,-1.80
2022-12-14T20:21:18.526Z,-2.00
2022-12-14T20:23:54.055Z,-2.10
2022-12-14T20:26:23.005Z,-2.00
2022-12-14T20:29:00.841Z,-1.80
2022-12-14T20:31:31.684Z,-1.70
2022-12-14T20:34:04.111Z,-1.50
2022-12-14T20:36:34.075Z,-1.60
2022-12-14T20:39:03.115Z,-1.60
2022-12-14T20:41:35.034Z,-1.90
2022-12-14T20:44:06.083Z,-1.80
2022-12-14T20:46:36.408Z,-1.90
2022-12-14T20:49:07.795Z,-1.90
2022-12-14T20:51:38.283Z,-1.70
2022-12-14T20:54:08.351Z,-1.50
2022-12-14T20:56:36.275Z,-1.30
2022-12-14T20:59:03.949Z,-1.10
2022-12-14T21:01:31.231Z,-0.90
2022-12-14T21:04:01.194Z,-1.00
2022-12-14T21:06:30.639Z,-1.40
2022-12-14T21:09:05.255Z,-1.60
2022-12-14T21:11:53.115Z,-1.70
2022-12-14T21:14:22.878Z,-1.60
2022-12-14T21:16:49.855Z,-1.80
2022-12-14T21:19:36.228Z,-1.80
2022-12-14T21:22:10.579Z,-1.90
2022-12-14T21:25:01.795Z,-2.00
2022-12-14T21:27:32.607Z,-1.90
2022-12-14T21:30:03.259Z,-2.10
2022-12-14T21:32:38.251Z,-2.00
2022-12-14T21:35:05.864Z,-2.10
2022-12-14T21:37:43.166Z,-2.20
2022-12-14T21:40:30.404Z,-2.10
2022-12-14T21:42:58.172Z,-2.20
2022-12-14T21:45:26.141Z,-2.20
2022-12-14T21:47:53.273Z,-2.20
2022-12-14T21:50:21.359Z,-2.30
2022-12-14T21:52:49.235Z,-2.20
2022-12-14T21:55:21.927Z,-2.20
2022-12-14T21:58:07.443Z,-2.20
2022-12-14T22:00:34.114Z,-2.10
2022-12-14T22:03:02.868Z,-2.00
2022-12-14T22:05:30.643Z,-2.00
2022-12-14T22:08:00.050Z,-2.10
2022-12-14T22:10:26.798Z,-2.20
2022-12-14T22:12:53.860Z,-2.20
2022-12-14T22:15:22.577Z,-2.20
2022-12-14T22:17:51.654Z,-2.20
2022-12-14T22:20:19.728Z,-2.10
2022-12-14T22:22:46.561Z,-2.10
2022-12-14T22:25:13.357Z,-2.30
2022-12-14T22:27:41.085Z,-2.70
2022-12-14T22:30:09.238Z,-2.80
2022-12-14T22:32:38.273Z,-2.80
2022-12-14T22:35:05.482Z,-2.80
2022-12-14T22:37:35.796Z,-2.50
2022-12-14T22:40:04.152Z,-2.30
2022-12-14T22:42:38.116Z,-2.50
2022-12-14T22:45:05.591Z,-2.70
2022-12-14T22:47:32.594Z,-2.50
2022-12-14T22:50:01.305Z,-2.40
2022-12-14T22:52:29.147Z,-2.50
2022-12-14T22:54:57.856Z,-2.60
2022-12-14T22:57:33.090Z,-2.80
2022-12-14T23:00:07.545Z,-2.80
2022-12-14T23:02:34.618Z,-2.50
2022-12-14T23:05:01.735Z,-2.40
2022-12-14T23:07:28.664Z,-2.30
2022-12-14T23:10:14.579Z,-2.30
2022-12-14T23:13:00.571Z,-2.30
2022-12-14T23:15:51.868Z,-2.30
2022-12-14T23:18:37.299Z,-2.50
2022-12-14T23:21:30.468Z,-2.60
2022-12-14T23:24:18.595Z,-2.60
2022-12-14T23:27:09.860Z,-2.60
2022-12-14T23:29:57.685Z,-2.60
2022-12-14T23:32:48.980Z,-2.70
2022-12-14T23:35:35.669Z,-3.00
2022-12-14T23:38:24.894Z,-3.20
2022-12-14T23:41:16.841Z,-3.10
2022-12-14T23:44:07.911Z,-2.90
2022-12-14T23:46:55.455Z,-2.80
2022-12-14T23:49:42.189Z,-3.10
2022-12-14T23:52:28.681Z,-3.10
2022-12-14T23:55:14.066Z,-3.10
2022-12-14T23:57:59.688Z,-2.90
